Time;durP1;ratioP1;P1;durP2;ratioP2;P2;SDS_P1;SDS_P2;PMS_P1;PMS_P2;Temp;Humidity;BMP_temperature;BMP_pressure;BME280_temperature;BME280_humidity;BME280_pressure;Samples;Min_cycle;Max_cycle;Signal;HPM_P1;HPM_P2
2022/05/30 00:01:14;;;;;;;10.70;2.50;;;;;;;;;;5067864;28;20051;-60
2022/05/30 00:03:41;;;;;;;13.43;5.33;;;;;;;;;;5062782;28;20585;-61
2022/05/30 00:06:08;;;;;;;7.80;3.00;;;;;;;;;;5048387;28;20045;-61
2022/05/30 00:08:35;;;;;;;12.73;3.53;;;;;;;;;;5047930;28;20041;-61
2022/05/30 00:11:02;;;;;;;10.90;3.30;;;;;;;;;;5054960;28;20048;-60
2022/05/30 00:13:28;;;;;;;13.27;3.00;;;;;;;;;;5059271;28;20511;-60
2022/05/30 00:15:54;;;;;;;9.17;3.00;;;;;;;;;;5052130;28;20051;-60
2022/05/30 00:18:20;;;;;;;15.73;3.07;;;;;;;;;;5057044;28;20462;-60
2022/05/30 00:20:47;;;;;;;14.87;3.37;;;;;;;;;;5051079;28;20103;-60
2022/05/30 00:23:13;;;;;;;14.43;2.77;;;;;;;;;;5070647;28;20040;-61
2022/05/30 00:25:43;;;;;;;13.53;3.40;;;;;;;;;;5072339;28;20055;-60
2022/05/30 00:28:09;;;;;;;15.20;3.30;;;;;;;;;;5071781;28;20048;-60
2022/05/30 00:30:35;;;;;;;11.33;2.87;;;;;;;;;;5071121;28;20041;-60
2022/05/30 00:33:01;;;;;;;16.03;3.20;;;;;;;;;;5058672;28;20399;-60
2022/05/30 00:35:27;;;;;;;12.83;4.10;;;;;;;;;;5052611;28;20079;-60
2022/05/30 00:37:53;;;;;;;11.23;3.13;;;;;;;;;;5051937;28;20045;-60
2022/05/30 00:40:19;;;;;;;9.67;3.73;;;;;;;;;;5052038;28;20111;-60
2022/05/30 00:42:45;;;;;;;10.77;3.53;;;;;;;;;;5051048;28;20094;-60
2022/05/30 00:45:12;;;;;;;16.90;4.80;;;;;;;;;;5050656;28;20076;-60
2022/05/30 00:47:38;;;;;;;11.70;3.80;;;;;;;;;;5051358;28;20103;-60
2022/05/30 00:50:05;;;;;;;14.80;4.20;;;;;;;;;;5051150;28;20403;-60
2022/05/30 00:52:34;;;;;;;12.37;4.47;;;;;;;;;;5049607;28;20060;-61
2022/05/30 00:55:11;;;;;;;14.23;5.27;;;;;;;;;;5051477;28;20060;-61
2022/05/30 00:57:38;;;;;;;12.47;4.37;;;;;;;;;;5063355;28;20079;-60
2022/05/30 01:00:10;;;;;;;9.97;4.07;;;;;;;;;;5072176;28;20377;-60
2022/05/30 01:02:38;;;;;;;17.03;4.47;;;;;;;;;;5062350;28;20078;-60
2022/05/30 01:07:49;;;;;;;11.57;4.37;;;;;;;;;;5071173;28;20048;-60
2022/05/30 01:10:18;;;;;;;14.13;4.20;;;;;;;;;;5070499;28;20044;-61
2022/05/30 01:12:49;;;;;;;13.70;4.63;;;;;;;;;;5071136;28;20095;-60
2022/05/30 01:15:16;;;;;;;18.97;6.50;;;;;;;;;;5071451;28;20048;-60
2022/05/30 01:17:49;;;;;;;17.30;4.27;;;;;;;;;;5071076;28;20044;-61
2022/05/30 01:20:20;;;;;;;15.10;5.15;;;;;;;;;;5070060;28;20044;-61
2022/05/30 01:22:58;;;;;;;19.20;5.97;;;;;;;;;;5070223;28;20064;-61
2022/05/30 01:25:36;;;;;;;13.43;6.23;;;;;;;;;;5051179;28;20984;-60
2022/05/30 01:28:20;;;;;;;17.67;5.17;;;;;;;;;;5051062;28;20099;-60
2022/05/30 01:30:47;;;;;;;14.90;4.90;;;;;;;;;;5058218;28;20453;-60
2022/05/30 01:33:14;;;;;;;21.30;5.97;;;;;;;;;;5070191;28;20052;-61
2022/05/30 01:35:40;;;;;;;14.47;5.63;;;;;;;;;;5069561;28;20036;-60
2022/05/30 01:38:06;;;;;;;15.87;5.10;;;;;;;;;;5071232;28;20048;-61
2022/05/30 01:40:32;;;;;;;14.87;5.67;;;;;;;;;;5069604;28;20074;-60
2022/05/30 01:42:58;;;;;;;17.77;5.70;;;;;;;;;;5069177;28;20462;-61
2022/05/30 01:45:25;;;;;;;11.47;5.00;;;;;;;;;;5071072;28;20052;-61
2022/05/30 01:47:51;;;;;;;15.33;5.27;;;;;;;;;;5070647;28;20095;-60
2022/05/30 01:50:18;;;;;;;18.33;5.40;;;;;;;;;;5069143;28;20056;-60
2022/05/30 01:52:44;;;;;;;15.17;6.50;;;;;;;;;;5068258;28;20045;-60
2022/05/30 01:55:10;;;;;;;14.40;5.63;;;;;;;;;;5070769;28;20422;-61
2022/05/30 01:57:37;;;;;;;12.93;5.00;;;;;;;;;;5068569;28;20049;-60
2022/05/30 02:00:04;;;;;;;18.67;7.10;;;;;;;;;;5054136;28;20040;-61
2022/05/30 02:02:30;;;;;;;14.30;5.97;;;;;;;;;;5070641;28;20136;-61
2022/05/30 02:04:56;;;;;;;15.70;5.47;;;;;;;;;;5070622;28;20127;-60
2022/05/30 02:07:22;;;;;;;20.87;6.57;;;;;;;;;;5070206;28;20506;-61
2022/05/30 02:09:48;;;;;;;18.93;6.43;;;;;;;;;;5068844;28;20818;-60
2022/05/30 02:12:14;;;;;;;18.60;7.50;;;;;;;;;;5069563;28;20041;-61
2022/05/30 02:14:42;;;;;;;29.33;7.00;;;;;;;;;;5070030;28;20119;-60
2022/05/30 02:17:08;;;;;;;17.97;6.10;;;;;;;;;;5068436;28;20044;-62
2022/05/30 02:19:39;;;;;;;25.57;8.23;;;;;;;;;;5050123;28;20083;-60
2022/05/30 02:22:06;;;;;;;14.90;7.47;;;;;;;;;;5049906;28;20041;-60
2022/05/30 02:24:32;;;;;;;21.43;8.10;;;;;;;;;;5048450;28;20060;-60
2022/05/30 02:26:59;;;;;;;20.87;7.60;;;;;;;;;;5050498;28;20052;-60
2022/05/30 02:29:25;;;;;;;26.07;9.93;;;;;;;;;;5049719;28;20452;-60
2022/05/30 02:31:51;;;;;;;25.33;8.60;;;;;;;;;;5048998;28;20051;-60
2022/05/30 02:37:02;;;;;;;24.77;9.07;;;;;;;;;;5064517;28;20040;-61
2022/05/30 02:39:29;;;;;;;25.67;10.57;;;;;;;;;;5069163;28;20055;-61
2022/05/30 02:41:55;;;;;;;19.33;8.40;;;;;;;;;;5069561;28;20053;-60
2022/05/30 02:44:22;;;;;;;19.17;7.80;;;;;;;;;;5070334;28;20051;-61
2022/05/30 02:46:49;;;;;;;20.60;8.00;;;;;;;;;;5069408;28;20525;-61
2022/05/30 02:49:15;;;;;;;23.60;8.73;;;;;;;;;;5050750;28;20110;-60
2022/05/30 02:51:42;;;;;;;21.77;7.77;;;;;;;;;;5048372;28;20064;-61
2022/05/30 02:54:08;;;;;;;22.70;10.27;;;;;;;;;;5049402;28;20051;-60
2022/05/30 02:56:34;;;;;;;19.97;7.27;;;;;;;;;;5049162;28;20049;-61
2022/05/30 02:59:01;;;;;;;23.93;8.13;;;;;;;;;;5048158;28;20048;-60
2022/05/30 03:01:27;;;;;;;24.17;8.60;;;;;;;;;;5048962;28;20151;-61
2022/05/30 03:03:53;;;;;;;24.63;8.90;;;;;;;;;;5051234;28;20044;-60
2022/05/30 03:06:20;;;;;;;20.73;8.53;;;;;;;;;;5069311;28;20051;-60
2022/05/30 03:08:46;;;;;;;22.10;8.37;;;;;;;;;;5049434;28;20053;-60
2022/05/30 03:11:12;;;;;;;18.60;8.83;;;;;;;;;;5047247;28;20083;-61
2022/05/30 03:13:38;;;;;;;19.60;7.37;;;;;;;;;;5048546;28;20049;-60
2022/05/30 03:16:05;;;;;;;20.03;8.03;;;;;;;;;;5049196;28;20044;-60
2022/05/30 03:18:31;;;;;;;20.40;6.77;;;;;;;;;;5049931;28;20052;-60
2022/05/30 03:20:57;;;;;;;20.50;7.60;;;;;;;;;;5068800;28;20047;-60
2022/05/30 03:23:23;;;;;;;23.53;7.77;;;;;;;;;;5069482;28;20451;-61
2022/05/30 03:25:50;;;;;;;24.57;7.33;;;;;;;;;;5053424;28;20107;-60
2022/05/30 03:28:16;;;;;;;19.43;6.83;;;;;;;;;;5049181;28;20081;-61
2022/05/30 03:30:44;;;;;;;15.03;6.87;;;;;;;;;;5048482;28;20045;-61
2022/05/30 03:33:10;;;;;;;21.27;7.83;;;;;;;;;;5046916;28;20513;-60
2022/05/30 03:35:37;;;;;;;20.67;7.30;;;;;;;;;;5066418;28;20051;-60
2022/05/30 03:38:03;;;;;;;20.43;7.30;;;;;;;;;;5068362;28;20433;-60
2022/05/30 03:40:30;;;;;;;19.63;7.17;;;;;;;;;;5067569;28;20519;-60
2022/05/30 03:42:56;;;;;;;20.57;7.07;;;;;;;;;;5068130;28;20040;-60
2022/05/30 03:45:22;;;;;;;17.37;7.23;;;;;;;;;;5068866;28;20045;-60
2022/05/30 03:47:49;;;;;;;17.50;7.37;;;;;;;;;;5066146;28;20040;-61
2022/05/30 03:50:16;;;;;;;24.93;8.93;;;;;;;;;;5048171;28;20107;-60
2022/05/30 03:52:42;;;;;;;16.27;6.03;;;;;;;;;;5048019;28;20049;-61
2022/05/30 03:55:13;;;;;;;20.30;7.20;;;;;;;;;;5064946;28;20151;-60
2022/05/30 03:57:40;;;;;;;16.47;7.70;;;;;;;;;;5054465;28;20052;-60
2022/05/30 04:00:07;;;;;;;14.70;7.23;;;;;;;;;;5048464;28;20060;-61
2022/05/30 04:02:33;;;;;;;17.23;7.20;;;;;;;;;;5047729;28;20045;-60
2022/05/30 04:04:59;;;;;;;24.73;8.90;;;;;;;;;;5047939;28;20048;-61
2022/05/30 04:07:26;;;;;;;18.07;8.00;;;;;;;;;;5048264;28;20132;-61
2022/05/30 04:09:53;;;;;;;19.60;8.07;;;;;;;;;;5047937;28;20099;-61
2022/05/30 04:12:23;;;;;;;16.70;8.03;;;;;;;;;;5047089;28;20041;-61
2022/05/30 04:14:56;;;;;;;29.30;9.53;;;;;;;;;;5047194;28;20138;-61
2022/05/30 04:17:22;;;;;;;18.90;8.60;;;;;;;;;;5048045;28;20033;-61
2022/05/30 04:19:48;;;;;;;25.30;9.70;;;;;;;;;;5047891;28;20047;-60
2022/05/30 04:22:14;;;;;;;20.67;8.90;;;;;;;;;;5047512;28;20077;-61
2022/05/30 04:24:40;;;;;;;21.47;8.77;;;;;;;;;;5048173;28;20055;-61
2022/05/30 04:27:07;;;;;;;21.03;8.73;;;;;;;;;;5048447;28;20053;-61
2022/05/30 04:29:33;;;;;;;25.20;10.07;;;;;;;;;;5049404;28;20049;-60
2022/05/30 04:32:02;;;;;;;27.23;10.07;;;;;;;;;;5047607;28;20453;-61
2022/05/30 04:34:28;;;;;;;21.23;8.00;;;;;;;;;;5046099;28;20101;-60
2022/05/30 04:36:54;;;;;;;24.57;9.60;;;;;;;;;;5045772;28;20499;-61
2022/05/30 04:39:20;;;;;;;22.53;8.40;;;;;;;;;;5046608;28;20406;-61
2022/05/30 04:41:46;;;;;;;25.40;8.47;;;;;;;;;;5047165;28;20371;-61
2022/05/30 04:44:12;;;;;;;19.13;7.40;;;;;;;;;;5046536;28;20044;-61
2022/05/30 04:46:38;;;;;;;21.97;8.50;;;;;;;;;;5047833;28;20128;-61
2022/05/30 04:49:05;;;;;;;19.50;7.90;;;;;;;;;;5047580;28;20607;-61
2022/05/30 04:51:31;;;;;;;13.53;7.70;;;;;;;;;;5046882;28;20044;-61
2022/05/30 04:53:57;;;;;;;16.80;7.10;;;;;;;;;;5046014;28;20055;-61
2022/05/30 04:56:23;;;;;;;16.37;6.17;;;;;;;;;;5044167;28;20136;-61
2022/05/30 04:58:50;;;;;;;18.80;7.57;;;;;;;;;;5048176;28;20060;-61
2022/05/30 05:01:16;;;;;;;15.87;6.20;;;;;;;;;;5061647;28;20044;-61
2022/05/30 05:03:43;;;;;;;15.57;7.13;;;;;;;;;;5069245;28;20495;-61
2022/05/30 05:06:10;;;;;;;14.90;6.50;;;;;;;;;;5070140;28;20094;-61
2022/05/30 05:08:53;;;;;;;9.70;5.77;;;;;;;;;;5070241;28;20056;-61
2022/05/30 05:11:19;;;;;;;10.90;5.83;;;;;;;;;;5070607;28;20954;-61
2022/05/30 05:13:45;;;;;;;13.00;6.17;;;;;;;;;;5064358;28;20566;-60
2022/05/30 05:16:11;;;;;;;15.33;7.07;;;;;;;;;;5060431;28;20558;-61
2022/05/30 05:18:37;;;;;;;20.07;5.80;;;;;;;;;;5057065;28;20095;-61
2022/05/30 05:21:04;;;;;;;18.47;7.40;;;;;;;;;;5050937;28;20048;-60
2022/05/30 05:23:30;;;;;;;15.40;6.27;;;;;;;;;;5057559;28;20414;-61
2022/05/30 05:25:56;;;;;;;14.67;5.60;;;;;;;;;;5070545;28;20579;-61
2022/05/30 05:28:23;;;;;;;14.43;6.70;;;;;;;;;;5069786;28;20043;-61
2022/05/30 05:30:49;;;;;;;13.30;7.53;;;;;;;;;;5068004;28;20055;-60
2022/05/30 05:33:18;;;;;;;14.57;6.23;;;;;;;;;;5070128;28;20131;-61
2022/05/30 05:35:44;;;;;;;21.23;7.40;;;;;;;;;;5055312;28;20045;-61
2022/05/30 05:38:11;;;;;;;15.13;5.57;;;;;;;;;;5064470;28;20789;-61
2022/05/30 05:40:40;;;;;;;14.33;4.93;;;;;;;;;;5061409;28;20078;-61
2022/05/30 05:43:07;;;;;;;5.90;3.50;;;;;;;;;;5049398;28;20053;-61
2022/05/30 05:45:37;;;;;;;8.40;3.20;;;;;;;;;;5049986;28;20492;-61
2022/05/30 05:48:03;;;;;;;13.83;5.53;;;;;;;;;;5050445;28;20041;-61
2022/05/30 05:50:29;;;;;;;7.43;3.33;;;;;;;;;;5066093;28;20059;-61
2022/05/30 05:52:55;;;;;;;10.20;2.93;;;;;;;;;;5068624;28;20113;-61
2022/05/30 05:55:22;;;;;;;10.70;2.40;;;;;;;;;;5069830;28;20489;-61
2022/05/30 05:57:48;;;;;;;5.97;2.40;;;;;;;;;;5054783;28;20037;-61
2022/05/30 06:00:15;;;;;;;4.03;2.67;;;;;;;;;;5050075;28;20052;-61
2022/05/30 06:02:41;;;;;;;10.17;3.13;;;;;;;;;;5053498;28;20041;-61
2022/05/30 06:05:09;;;;;;;7.50;3.00;;;;;;;;;;5069366;28;20123;-61
2022/05/30 06:07:35;;;;;;;6.23;2.87;;;;;;;;;;5062929;28;20123;-61
2022/05/30 06:10:01;;;;;;;7.60;2.53;;;;;;;;;;5069698;28;20037;-61
2022/05/30 06:12:27;;;;;;;7.10;2.63;;;;;;;;;;5070251;28;20048;-61
2022/05/30 06:14:53;;;;;;;7.67;2.50;;;;;;;;;;5062551;28;20045;-61
2022/05/30 06:17:19;;;;;;;8.77;2.63;;;;;;;;;;5049166;28;20045;-61
2022/05/30 06:19:46;;;;;;;8.30;2.27;;;;;;;;;;5049927;28;20076;-61
2022/05/30 06:22:12;;;;;;;7.40;2.40;;;;;;;;;;5049476;28;20140;-61
2022/05/30 06:24:38;;;;;;;6.40;2.50;;;;;;;;;;5049050;28;20128;-61
2022/05/30 06:27:06;;;;;;;9.07;2.40;;;;;;;;;;5060631;28;20460;-61
2022/05/30 06:29:32;;;;;;;4.80;1.50;;;;;;;;;;5053386;28;20457;-61
2022/05/30 06:31:58;;;;;;;4.27;1.93;;;;;;;;;;5061422;28;20045;-61
2022/05/30 06:34:24;;;;;;;5.03;1.20;;;;;;;;;;5062104;28;20033;-61
2022/05/30 06:36:50;;;;;;;4.13;0.90;;;;;;;;;;5052918;28;20051;-61
2022/05/30 06:39:19;;;;;;;3.53;0.83;;;;;;;;;;5059198;28;20036;-61
2022/05/30 06:41:48;;;;;;;2.90;1.03;;;;;;;;;;5059474;28;20044;-61
2022/05/30 06:44:14;;;;;;;4.80;0.90;;;;;;;;;;5057164;28;20102;-61
2022/05/30 06:46:40;;;;;;;5.07;1.17;;;;;;;;;;5050610;28;20048;-61
2022/05/30 06:49:06;;;;;;;5.07;0.90;;;;;;;;;;5051840;28;20086;-61
2022/05/30 06:51:34;;;;;;;4.43;0.70;;;;;;;;;;5056696;28;20041;-61
2022/05/30 06:54:01;;;;;;;3.77;0.90;;;;;;;;;;5053285;28;20071;-62
2022/05/30 06:56:28;;;;;;;3.77;0.80;;;;;;;;;;5054675;28;20120;-61
2022/05/30 06:58:54;;;;;;;3.60;0.73;;;;;;;;;;5061259;28;20496;-62
2022/05/30 07:01:21;;;;;;;5.10;0.77;;;;;;;;;;5056618;28;20037;-61
2022/05/30 07:03:48;;;;;;;5.77;0.80;;;;;;;;;;5056557;28;20049;-61
2022/05/30 07:06:15;;;;;;;2.67;0.70;;;;;;;;;;5054035;28;20052;-61
2022/05/30 07:08:46;;;;;;;4.13;0.87;;;;;;;;;;5064092;28;20833;-61
2022/05/30 07:11:16;;;;;;;3.93;0.93;;;;;;;;;;5068139;28;20094;-61
2022/05/30 07:13:42;;;;;;;2.83;0.50;;;;;;;;;;5066648;28;20147;-61
2022/05/30 07:16:09;;;;;;;3.10;0.60;;;;;;;;;;5069146;28;20463;-61
2022/05/30 07:18:35;;;;;;;2.30;1.33;;;;;;;;;;5061260;28;20098;-61
2022/05/30 07:21:03;;;;;;;4.07;0.50;;;;;;;;;;5047787;28;20045;-61
2022/05/30 07:23:30;;;;;;;3.00;0.53;;;;;;;;;;5049726;28;20045;-61
2022/05/30 07:26:00;;;;;;;1.30;0.50;;;;;;;;;;5067971;28;20052;-62
2022/05/30 07:28:28;;;;;;;2.87;0.53;;;;;;;;;;5058969;28;20041;-61
2022/05/30 07:30:55;;;;;;;4.03;0.70;;;;;;;;;;5047920;28;20151;-61
2022/05/30 07:33:21;;;;;;;2.13;0.47;;;;;;;;;;5058482;28;20044;-61
2022/05/30 07:35:47;;;;;;;2.73;0.47;;;;;;;;;;5065845;28;20049;-61
2022/05/30 07:38:13;;;;;;;2.07;0.40;;;;;;;;;;5065626;28;20048;-61
2022/05/30 07:40:39;;;;;;;3.40;0.77;;;;;;;;;;5066246;28;20051;-61
2022/05/30 07:43:05;;;;;;;1.90;0.57;;;;;;;;;;5067641;28;20571;-61
2022/05/30 07:45:31;;;;;;;2.37;0.50;;;;;;;;;;5065499;28;20040;-60
2022/05/30 07:47:57;;;;;;;2.83;0.60;;;;;;;;;;5054530;28;20072;-61
2022/05/30 07:50:23;;;;;;;3.20;1.03;;;;;;;;;;5052807;28;20413;-61
2022/05/30 07:52:49;;;;;;;2.70;0.40;;;;;;;;;;5066154;28;20049;-61
2022/05/30 07:55:15;;;;;;;1.03;0.23;;;;;;;;;;5052906;28;20154;-61
2022/05/30 07:57:50;;;;;;;1.70;0.50;;;;;;;;;;5048715;28;20053;-61
2022/05/30 08:00:17;;;;;;;3.87;0.87;;;;;;;;;;5050580;28;20045;-61
2022/05/30 08:02:43;;;;;;;1.37;0.50;;;;;;;;;;5059095;28;20045;-61
2022/05/30 08:05:10;;;;;;;2.20;0.77;;;;;;;;;;5064685;28;20060;-61
2022/05/30 08:07:36;;;;;;;4.30;0.37;;;;;;;;;;5055030;28;20041;-61
2022/05/30 08:10:03;;;;;;;2.37;0.57;;;;;;;;;;5053839;28;20411;-61
2022/05/30 08:12:29;;;;;;;2.27;0.50;;;;;;;;;;5049623;28;20040;-61
2022/05/30 08:14:56;;;;;;;1.70;0.40;;;;;;;;;;5052119;28;20037;-61
2022/05/30 08:17:22;;;;;;;0.70;0.27;;;;;;;;;;5058204;28;20131;-61
2022/05/30 08:19:48;;;;;;;4.13;1.03;;;;;;;;;;5061335;28;20175;-61
2022/05/30 08:22:14;;;;;;;2.73;0.40;;;;;;;;;;5047560;28;20132;-62
2022/05/30 08:24:42;;;;;;;2.03;0.30;;;;;;;;;;5054244;28;20076;-61
2022/05/30 08:27:08;;;;;;;1.10;0.30;;;;;;;;;;5046629;28;20495;-61
2022/05/30 08:29:34;;;;;;;1.73;0.37;;;;;;;;;;5048220;28;20052;-61
2022/05/30 08:32:00;;;;;;;2.33;0.40;;;;;;;;;;5047364;28;20049;-61
2022/05/30 08:34:26;;;;;;;2.30;0.60;;;;;;;;;;5051808;28;20419;-62
2022/05/30 08:36:52;;;;;;;1.97;0.50;;;;;;;;;;5051989;28;20072;-61
2022/05/30 08:42:04;;;;;;;2.03;0.77;;;;;;;;;;5051460;28;20088;-61
2022/05/30 08:44:31;;;;;;;2.23;0.30;;;;;;;;;;5051663;28;20041;-62
2022/05/30 08:47:07;;;;;;;0.87;0.20;;;;;;;;;;5051490;28;20111;-62
2022/05/30 08:49:35;;;;;;;1.13;0.30;;;;;;;;;;5051255;28;20112;-62
2022/05/30 08:52:01;;;;;;;1.17;0.20;;;;;;;;;;5051408;28;20127;-61
2022/05/30 08:54:51;;;;;;;1.27;0.40;;;;;;;;;;5052079;28;20128;-61
2022/05/30 08:57:36;;;;;;;0.97;0.17;;;;;;;;;;5033344;28;20045;-62
2022/05/30 09:00:15;;;;;;;0.43;0.20;;;;;;;;;;5050028;28;20494;-61
2022/05/30 09:02:47;;;;;;;1.10;0.20;;;;;;;;;;5050791;28;20594;-62
2022/05/30 09:05:36;;;;;;;0.53;0.23;;;;;;;;;;5050955;28;20123;-61
2022/05/30 09:08:04;;;;;;;1.30;0.40;;;;;;;;;;5028163;28;20299;-61
2022/05/30 09:10:34;;;;;;;2.47;0.40;;;;;;;;;;5054669;28;20500;-61
2022/05/30 09:13:06;;;;;;;1.60;0.40;;;;;;;;;;5070583;28;20546;-62
2022/05/30 09:15:43;;;;;;;2.03;0.40;;;;;;;;;;5070830;28;20385;-61
2022/05/30 09:18:09;;;;;;;1.50;0.30;;;;;;;;;;5071106;28;20438;-61
2022/05/30 09:20:35;;;;;;;2.47;0.40;;;;;;;;;;5070878;28;20418;-61
2022/05/30 09:23:02;;;;;;;1.73;0.40;;;;;;;;;;5070596;28;20045;-62
2022/05/30 09:25:56;;;;;;;2.87;0.50;;;;;;;;;;5070990;28;20037;-61
2022/05/30 09:28:23;;;;;;;1.67;0.63;;;;;;;;;;5070003;28;20041;-61
2022/05/30 09:30:49;;;;;;;1.60;0.27;;;;;;;;;;5070902;28;20142;-62
2022/05/30 09:33:28;;;;;;;1.63;0.40;;;;;;;;;;5070720;28;20413;-61
2022/05/30 09:36:13;;;;;;;1.83;0.40;;;;;;;;;;5070271;28;20052;-62
2022/05/30 09:38:45;;;;;;;3.17;0.50;;;;;;;;;;5070231;28;20052;-61
2022/05/30 09:41:18;;;;;;;2.10;0.40;;;;;;;;;;5070502;28;20109;-62
2022/05/30 09:43:53;;;;;;;1.83;0.40;;;;;;;;;;5070087;28;20056;-61
2022/05/30 09:46:20;;;;;;;3.13;0.60;;;;;;;;;;5066534;28;20602;-62
2022/05/30 09:49:05;;;;;;;3.03;0.53;;;;;;;;;;5051720;28;20077;-62
2022/05/30 09:51:31;;;;;;;1.50;0.73;;;;;;;;;;5058870;28;20636;-61
2022/05/30 09:53:57;;;;;;;3.23;0.70;;;;;;;;;;5070422;28;20044;-62
2022/05/30 09:56:23;;;;;;;3.07;0.50;;;;;;;;;;5057422;28;20049;-62
2022/05/30 09:59:00;;;;;;;3.17;0.60;;;;;;;;;;5050082;28;20057;-61
2022/05/30 10:01:27;;;;;;;1.83;0.40;;;;;;;;;;5053288;28;20142;-59
2022/05/30 10:03:59;;;;;;;4.33;0.60;;;;;;;;;;5055372;28;20142;-59
2022/05/30 10:06:26;;;;;;;2.47;0.43;;;;;;;;;;5049802;28;20533;-59
2022/05/30 10:09:08;;;;;;;4.03;0.70;;;;;;;;;;5049608;28;20095;-59
2022/05/30 10:11:35;;;;;;;4.67;0.50;;;;;;;;;;5049686;28;20040;-59
2022/05/30 10:14:16;;;;;;;2.63;0.90;;;;;;;;;;5050059;28;20049;-59
2022/05/30 10:16:42;;;;;;;1.60;0.40;;;;;;;;;;5052594;28;20048;-59
2022/05/30 10:19:10;;;;;;;2.50;0.50;;;;;;;;;;5060238;28;20049;-58
2022/05/30 10:28:14;;;;;;;4.00;0.50;;;;;;;;;;5049839;28;20036;-58
2022/05/30 10:30:44;;;;;;;3.90;0.73;;;;;;;;;;5049628;28;20398;-61
2022/05/30 10:33:13;;;;;;;1.17;0.40;;;;;;;;;;5048374;28;20044;-61
2022/05/30 10:35:46;;;;;;;2.20;0.43;;;;;;;;;;5049873;28;20445;-61
2022/05/30 10:38:12;;;;;;;4.40;0.88;;;;;;;;;;5049693;28;20061;-61
2022/05/30 10:40:44;;;;;;;2.23;0.50;;;;;;;;;;5049485;28;20580;-63
2022/05/30 10:43:14;;;;;;;4.03;0.53;;;;;;;;;;5049654;28;20041;-61
2022/05/30 10:45:40;;;;;;;1.53;0.50;;;;;;;;;;5049101;28;20503;-61
2022/05/30 10:48:07;;;;;;;0.93;0.40;;;;;;;;;;5049009;28;20045;-61
2022/05/30 10:50:50;;;;;;;2.53;0.37;;;;;;;;;;5049046;28;20052;-61
2022/05/30 10:53:28;;;;;;;2.53;0.40;;;;;;;;;;5058942;28;20127;-61
2022/05/30 10:55:55;;;;;;;3.87;0.83;;;;;;;;;;5067077;28;20407;-61
2022/05/30 10:58:30;;;;;;;4.33;0.83;;;;;;;;;;5068735;28;20036;-61
2022/05/30 11:01:03;;;;;;;2.00;0.60;;;;;;;;;;5058365;28;20049;-61
2022/05/30 11:03:40;;;;;;;2.45;0.60;;;;;;;;;;5053427;28;20131;-62
2022/05/30 11:06:15;;;;;;;4.17;0.63;;;;;;;;;;5055388;28;20086;-62
2022/05/30 11:08:50;;;;;;;2.00;0.40;;;;;;;;;;5060727;28;20044;-59
2022/05/30 11:11:35;;;;;;;2.83;0.50;;;;;;;;;;5054931;28;20041;-59
2022/05/30 11:14:10;;;;;;;3.80;0.50;;;;;;;;;;5046735;28;20049;-59
2022/05/30 11:16:52;;;;;;;2.67;0.50;;;;;;;;;;5067881;28;20051;-59
2022/05/30 11:19:47;;;;;;;2.93;0.40;;;;;;;;;;5066898;28;20474;-59
2022/05/30 11:22:17;;;;;;;4.03;0.67;;;;;;;;;;5043303;28;20072;-59
2022/05/30 11:24:47;;;;;;;4.77;0.50;;;;;;;;;;5067600;28;20495;-59
2022/05/30 11:27:24;;;;;;;2.60;0.60;;;;;;;;;;5061510;28;20127;-59
2022/05/30 11:29:51;;;;;;;1.20;0.40;;;;;;;;;;5061824;28;20595;-59
2022/05/30 11:32:44;;;;;;;2.10;0.40;;;;;;;;;;5053430;28;20103;-59
2022/05/30 11:35:29;;;;;;;2.87;0.57;;;;;;;;;;5057506;28;20063;-59
2022/05/30 11:38:15;;;;;;;1.47;0.50;;;;;;;;;;5064411;28;20048;-59
2022/05/30 11:40:51;;;;;;;2.20;0.40;;;;;;;;;;5067706;28;20056;-59
2022/05/30 11:43:20;;;;;;;2.60;0.80;;;;;;;;;;5066270;28;20056;-59
2022/05/30 11:45:57;;;;;;;1.50;0.50;;;;;;;;;;5058953;28;20049;-59
2022/05/30 11:48:30;;;;;;;2.17;0.50;;;;;;;;;;5050959;28;20479;-59
2022/05/30 11:51:08;;;;;;;2.73;0.40;;;;;;;;;;5066330;28;20044;-59
2022/05/30 11:53:34;;;;;;;1.73;0.53;;;;;;;;;;5060705;28;20523;-59
2022/05/30 11:56:00;;;;;;;1.70;0.63;;;;;;;;;;5051612;28;20052;-59
2022/05/30 11:58:45;;;;;;;2.10;0.50;;;;;;;;;;5049771;28;20123;-59
2022/05/30 12:01:11;;;;;;;1.00;0.30;;;;;;;;;;5048414;28;20100;-60
2022/05/30 12:04:07;;;;;;;2.63;0.60;;;;;;;;;;5053762;28;20044;-59
2022/05/30 12:06:33;;;;;;;2.87;0.53;;;;;;;;;;5067522;28;20456;-59
2022/05/30 12:09:09;;;;;;;1.30;0.23;;;;;;;;;;5062598;28;20037;-59
2022/05/30 12:11:54;;;;;;;1.80;0.47;;;;;;;;;;5057478;28;20137;-59
2022/05/30 12:14:35;;;;;;;1.70;0.50;;;;;;;;;;5068186;28;20044;-59
2022/05/30 12:17:20;;;;;;;1.97;0.40;;;;;;;;;;5067453;28;20098;-59
2022/05/30 12:25:44;;;;;;;1.60;0.50;;;;;;;;;;5047690;28;20135;-62
2022/05/30 12:28:29;;;;;;;0.83;0.30;;;;;;;;;;5048091;28;20037;-59
2022/05/30 12:31:00;;;;;;;1.77;0.30;;;;;;;;;;5047624;28;20118;-59
2022/05/30 12:33:29;;;;;;;1.10;0.23;;;;;;;;;;5061065;28;20051;-59
2022/05/30 12:36:18;;;;;;;1.77;0.50;;;;;;;;;;5050474;28;20052;-59
2022/05/30 12:38:58;;;;;;;1.00;0.40;;;;;;;;;;5045346;28;20111;-59
2022/05/30 12:41:26;;;;;;;4.20;0.70;;;;;;;;;;5052466;28;20470;-59
2022/05/30 12:43:52;;;;;;;1.17;0.40;;;;;;;;;;5047027;28;20080;-59
2022/05/30 12:46:20;;;;;;;2.67;0.70;;;;;;;;;;5049103;28;20041;-59
2022/05/30 12:48:53;;;;;;;2.27;0.50;;;;;;;;;;5048667;28;20415;-59
2022/05/30 12:51:26;;;;;;;1.98;0.80;;;;;;;;;;5052011;28;20052;-59
2022/05/30 12:53:55;;;;;;;3.53;0.60;;;;;;;;;;5055582;28;20079;-59
2022/05/30 12:56:39;;;;;;;1.07;0.40;;;;;;;;;;5059912;28;20139;-59
2022/05/30 12:59:08;;;;;;;1.47;0.40;;;;;;;;;;5057818;28;20055;-59
2022/05/30 13:01:43;;;;;;;3.23;0.70;;;;;;;;;;5064967;28;20048;-59
2022/05/30 13:04:15;;;;;;;2.33;0.60;;;;;;;;;;5060124;28;20099;-59
2022/05/30 13:06:52;;;;;;;2.15;0.50;;;;;;;;;;5056777;28;20049;-59
2022/05/30 13:09:21;;;;;;;2.00;0.57;;;;;;;;;;5061567;28;20040;-59
2022/05/30 13:11:56;;;;;;;2.83;0.87;;;;;;;;;;5067002;28;20063;-59
2022/05/30 13:14:40;;;;;;;2.47;0.60;;;;;;;;;;5061700;28;20605;-59
2022/05/30 13:17:24;;;;;;;1.40;0.50;;;;;;;;;;5052761;28;20047;-59
2022/05/30 13:20:01;;;;;;;1.45;0.35;;;;;;;;;;5061225;28;20041;-59
2022/05/30 13:22:35;;;;;;;2.63;0.40;;;;;;;;;;5067461;28;20055;-59
2022/05/30 13:25:02;;;;;;;1.30;0.50;;;;;;;;;;5056027;28;20086;-59
2022/05/30 13:27:28;;;;;;;2.60;0.52;;;;;;;;;;5058872;28;20045;-59
2022/05/30 13:29:55;;;;;;;0.98;0.40;;;;;;;;;;5063256;28;20049;-59
2022/05/30 13:32:22;;;;;;;1.58;0.60;;;;;;;;;;5058884;28;20036;-59
2022/05/30 13:34:49;;;;;;;3.75;0.77;;;;;;;;;;5063075;28;20068;-59
2022/05/30 13:37:23;;;;;;;1.02;0.47;;;;;;;;;;5051001;28;20041;-60
2022/05/30 13:39:50;;;;;;;2.33;0.55;;;;;;;;;;5049948;28;20068;-59
2022/05/30 13:42:16;;;;;;;1.60;0.60;;;;;;;;;;5051018;28;20053;-59
2022/05/30 13:44:42;;;;;;;1.27;0.40;;;;;;;;;;5050136;28;20056;-59
2022/05/30 13:47:15;;;;;;;1.98;0.40;;;;;;;;;;5057436;28;20399;-59
2022/05/30 13:49:45;;;;;;;2.03;0.43;;;;;;;;;;5066109;28;20052;-59
2022/05/30 13:52:16;;;;;;;2.17;0.50;;;;;;;;;;5060625;28;20135;-59
2022/05/30 13:54:43;;;;;;;1.35;0.40;;;;;;;;;;5064677;28;20051;-59
2022/05/30 13:57:11;;;;;;;3.78;1.25;;;;;;;;;;5059275;28;20045;-59
2022/05/30 13:59:45;;;;;;;5.18;0.57;;;;;;;;;;5055932;28;20078;-59
2022/05/30 14:02:23;;;;;;;1.35;0.30;;;;;;;;;;5061949;28;20045;-60
2022/05/30 14:04:51;;;;;;;2.17;0.60;;;;;;;;;;5050770;28;20076;-60
2022/05/30 14:07:20;;;;;;;2.38;0.55;;;;;;;;;;5056917;28;20055;-59
2022/05/30 14:09:46;;;;;;;1.08;0.50;;;;;;;;;;5057303;28;20118;-59
2022/05/30 14:12:13;;;;;;;1.20;0.40;;;;;;;;;;5057370;28;20620;-59
2022/05/30 14:14:43;;;;;;;2.28;0.63;;;;;;;;;;5059895;28;20048;-59
2022/05/30 14:17:10;;;;;;;2.70;0.55;;;;;;;;;;5065181;28;20050;-60
2022/05/30 14:19:37;;;;;;;2.00;0.50;;;;;;;;;;5052483;28;20083;-59
2022/05/30 14:22:09;;;;;;;1.58;0.47;;;;;;;;;;5057106;28;20113;-59
2022/05/30 14:24:38;;;;;;;3.40;0.67;;;;;;;;;;5052101;28;20045;-59
2022/05/30 14:27:14;;;;;;;0.95;0.43;;;;;;;;;;5065429;28;20036;-59
2022/05/30 14:29:43;;;;;;;1.23;0.40;;;;;;;;;;5055158;28;20037;-59
2022/05/30 14:32:22;;;;;;;2.00;0.43;;;;;;;;;;5050868;28;20045;-62
2022/05/30 14:34:57;;;;;;;2.15;0.55;;;;;;;;;;5053846;28;20052;-59
2022/05/30 14:37:28;;;;;;;3.42;0.52;;;;;;;;;;5062287;28;20059;-59
2022/05/30 14:39:55;;;;;;;0.70;0.30;;;;;;;;;;5048254;28;20061;-59
2022/05/30 14:42:23;;;;;;;4.57;0.90;;;;;;;;;;5050693;28;20107;-59
2022/05/30 14:44:59;;;;;;;2.97;0.43;;;;;;;;;;5049654;28;20041;-59
2022/05/30 14:47:31;;;;;;;2.00;0.50;;;;;;;;;;5051370;28;20043;-59
2022/05/30 14:50:09;;;;;;;2.13;0.60;;;;;;;;;;5059439;28;20094;-59
2022/05/30 14:52:42;;;;;;;2.13;0.53;;;;;;;;;;5056916;28;20483;-59
2022/05/30 14:55:16;;;;;;;4.45;0.85;;;;;;;;;;5055748;28;20106;-59
2022/05/30 14:57:45;;;;;;;5.03;0.60;;;;;;;;;;5053679;28;20037;-59
2022/05/30 15:00:25;;;;;;;5.07;0.60;;;;;;;;;;5053607;28;20049;-59
2022/05/30 15:05:36;;;;;;;1.65;0.50;;;;;;;;;;5064502;28;20135;-59
2022/05/30 15:08:02;;;;;;;1.80;0.50;;;;;;;;;;5061786;28;20407;-59
2022/05/30 15:10:28;;;;;;;2.63;0.75;;;;;;;;;;5067831;28;20040;-59
2022/05/30 15:12:54;;;;;;;1.85;0.60;;;;;;;;;;5054477;28;20055;-59
2022/05/30 15:15:20;;;;;;;2.03;0.55;;;;;;;;;;5053071;28;20099;-59